createdAt,value
2023-03-29T00:02:03.997Z,101988.22
2023-03-29T00:04:31.417Z,101986.97
2023-03-29T00:07:03.990Z,101984.47
2023-03-29T00:09:33.804Z,101979.31
2023-03-29T00:12:01.721Z,101972.69
2023-03-29T00:14:30.807Z,101969.91
2023-03-29T00:16:59.102Z,101955.47
2023-03-29T00:19:26.347Z,101963.13
2023-03-29T00:21:53.072Z,101960.91
2023-03-29T00:24:21.442Z,101954.66
2023-03-29T00:26:49.466Z,101942.63
2023-03-29T00:29:16.739Z,101937.56
2023-03-29T00:31:46.011Z,101925.03
2023-03-29T00:34:12.799Z,101928.47
2023-03-29T00:36:40.287Z,101918.63
2023-03-29T00:39:07.368Z,101911.94
2023-03-29T00:41:34.025Z,101916.22
2023-03-29T00:44:03.500Z,101906.13
2023-03-29T00:46:31.023Z,101905.56
2023-03-29T00:49:05.888Z,101897.66
2023-03-29T00:51:35.666Z,101895.16
2023-03-29T00:54:05.760Z,101883.88
2023-03-29T00:56:37.093Z,101890.69
2023-03-29T00:59:15.609Z,101876.50
2023-03-29T01:01:56.729Z,101870.56
2023-03-29T01:04:30.984Z,101866.28
2023-03-29T01:07:03.691Z,101852.72
2023-03-29T01:09:34.000Z,101853.53
2023-03-29T01:12:08.053Z,101843.50
2023-03-29T01:14:40.092Z,101840.19
2023-03-29T01:17:06.999Z,101828.34
2023-03-29T01:19:45.153Z,101814.47
2023-03-29T01:22:54.672Z,101807.88
2023-03-29T01:25:26.736Z,101804.34
2023-03-29T01:28:06.365Z,101795.50
2023-03-29T01:30:49.663Z,101785.66
2023-03-29T01:33:25.431Z,101770.63
2023-03-29T01:36:01.817Z,101767.94
2023-03-29T01:38:34.401Z,101750.75
2023-03-29T01:41:03.667Z,101742.69
2023-03-29T01:43:55.135Z,101737.09
2023-03-29T01:46:27.349Z,101725.19
2023-03-29T01:49:03.550Z,101712.78
2023-03-29T01:51:38.062Z,101704.69
2023-03-29T01:54:15.800Z,101702.50
2023-03-29T01:56:45.552Z,101687.97
2023-03-29T01:59:17.675Z,101684.16
2023-03-29T02:01:49.774Z,101676.38
2023-03-29T02:04:22.748Z,101656.44
2023-03-29T02:06:54.241Z,101650.03
2023-03-29T02:09:22.155Z,101633.97
2023-03-29T02:11:51.573Z,101629.38
2023-03-29T02:14:19.332Z,101617.84
2023-03-29T02:16:46.364Z,101603.59
2023-03-29T02:19:13.814Z,101594.66
2023-03-29T02:21:51.846Z,101579.47
2023-03-29T02:24:22.118Z,101568.44
2023-03-29T02:26:49.390Z,101569.59
2023-03-29T02:29:16.462Z,101555.94
2023-03-29T02:31:50.226Z,101553.47
2023-03-29T02:34:28.826Z,101545.44
2023-03-29T02:37:03.842Z,101532.16
2023-03-29T02:39:33.793Z,101523.63
2023-03-29T02:42:02.868Z,101521.88
2023-03-29T02:44:32.133Z,101519.19
2023-03-29T02:47:15.729Z,101510.34
2023-03-29T02:49:43.039Z,101504.94
2023-03-29T02:52:16.028Z,101486.78
2023-03-29T02:54:45.963Z,101480.47
2023-03-29T02:57:13.414Z,101479.94
2023-03-29T02:59:43.830Z,101466.63
2023-03-29T03:02:11.827Z,101456.94
2023-03-29T03:04:38.563Z,101454.47
2023-03-29T03:07:05.481Z,101435.66
2023-03-29T03:09:32.549Z,101418.50
2023-03-29T03:11:59.231Z,101415.09
2023-03-29T03:14:25.894Z,101392.00
2023-03-29T03:16:52.880Z,101389.16
2023-03-29T03:19:19.894Z,101378.88
2023-03-29T03:21:47.106Z,101377.59
2023-03-29T03:24:13.993Z,101368.19
2023-03-29T03:26:40.776Z,101360.19
2023-03-29T03:29:07.520Z,101358.47
2023-03-29T03:31:34.210Z,101352.53
2023-03-29T03:34:00.993Z,101338.16
2023-03-29T03:36:29.148Z,101331.47
2023-03-29T03:38:55.857Z,101325.44
2023-03-29T03:41:22.797Z,101323.41
2023-03-29T03:43:49.617Z,101306.63
2023-03-29T03:46:17.226Z,101301.75
2023-03-29T03:48:45.979Z,101300.28
2023-03-29T03:51:13.060Z,101302.09
2023-03-29T03:53:40.038Z,101294.84
2023-03-29T03:56:09.155Z,101300.50
2023-03-29T03:58:39.426Z,101289.97
2023-03-29T04:01:08.393Z,101282.75
2023-03-29T04:03:35.495Z,101281.38
2023-03-29T04:06:03.207Z,101277.66
2023-03-29T04:08:30.353Z,101270.78
2023-03-29T04:10:58.824Z,101249.69
2023-03-29T04:13:26.519Z,101247.78
2023-03-29T04:15:58.788Z,101234.28
2023-03-29T04:18:27.677Z,101229.81
2023-03-29T04:20:54.489Z,101219.19
2023-03-29T04:23:21.169Z,101214.75
2023-03-29T04:25:47.910Z,101216.66
2023-03-29T04:28:14.585Z,101218.75
2023-03-29T04:30:41.591Z,101211.59
2023-03-29T04:33:08.627Z,101203.13
2023-03-29T04:35:35.436Z,101198.06
2023-03-29T04:38:02.060Z,101199.75
2023-03-29T04:40:29.174Z,101192.28
2023-03-29T04:42:55.880Z,101181.00
2023-03-29T04:45:22.843Z,101169.66
2023-03-29T04:47:49.744Z,101161.97
2023-03-29T04:50:16.623Z,101162.28
2023-03-29T04:52:45.336Z,101148.91
2023-03-29T04:55:12.344Z,101150.00
2023-03-29T04:57:39.051Z,101158.13
2023-03-29T05:00:14.609Z,101143.25
2023-03-29T05:02:44.208Z,101138.88
2023-03-29T05:05:11.980Z,101138.56
2023-03-29T05:07:39.356Z,101136.94
2023-03-29T05:10:06.768Z,101129.81
2023-03-29T05:12:33.396Z,101115.81
2023-03-29T05:15:00.388Z,101115.59
2023-03-29T05:17:27.492Z,101115.81
2023-03-29T05:19:54.821Z,101124.00
2023-03-29T05:22:21.861Z,101114.28
2023-03-29T05:24:48.865Z,101113.81
2023-03-29T05:27:17.127Z,101117.78
2023-03-29T05:29:44.827Z,101111.25
2023-03-29T05:32:11.741Z,101111.13
2023-03-29T05:34:39.239Z,101107.72
2023-03-29T05:37:06.211Z,101107.59
2023-03-29T05:39:35.738Z,101116.59
2023-03-29T05:42:04.592Z,101120.81
2023-03-29T05:44:31.508Z,101122.81
2023-03-29T05:46:58.506Z,101114.88
2023-03-29T05:49:25.543Z,101113.56
2023-03-29T05:51:52.370Z,101115.91
2023-03-29T05:54:19.069Z,101118.47
2023-03-29T05:56:45.941Z,101118.94
2023-03-29T05:59:13.788Z,101129.69
2023-03-29T06:01:41.766Z,101130.72
2023-03-29T06:04:08.563Z,101125.94
2023-03-29T06:06:35.769Z,101141.22
2023-03-29T06:09:02.472Z,101134.81
2023-03-29T06:11:29.274Z,101138.81
2023-03-29T06:13:56.001Z,101141.34
2023-03-29T06:16:22.853Z,101135.44
2023-03-29T06:18:49.590Z,101154.69
2023-03-29T06:21:16.905Z,101148.94
2023-03-29T06:23:43.803Z,101145.69
2023-03-29T06:26:10.806Z,101154.69
2023-03-29T06:28:37.547Z,101155.66
2023-03-29T06:31:05.346Z,101166.00
2023-03-29T06:33:32.629Z,101169.09
2023-03-29T06:35:59.586Z,101173.53
2023-03-29T06:38:28.396Z,101180.53
2023-03-29T06:41:03.942Z,101181.09
2023-03-29T06:43:33.300Z,101188.16
2023-03-29T06:46:01.814Z,101189.91
2023-03-29T06:48:29.516Z,101206.72
2023-03-29T06:50:56.448Z,101194.28
2023-03-29T06:53:23.422Z,101212.78
2023-03-29T06:55:52.011Z,101212.84
2023-03-29T06:58:18.755Z,101225.13
2023-03-29T07:00:45.903Z,101230.38
2023-03-29T07:03:19.928Z,101237.03
2023-03-29T07:05:47.805Z,101236.03
2023-03-29T07:08:16.499Z,101253.44
2023-03-29T07:10:47.475Z,101259.19
2023-03-29T07:13:15.455Z,101267.84
2023-03-29T07:15:43.707Z,101257.97
2023-03-29T07:18:12.522Z,101265.47
2023-03-29T07:20:40.620Z,101284.09
2023-03-29T07:23:09.157Z,101285.44
2023-03-29T07:25:36.931Z,101286.38
2023-03-29T07:28:04.055Z,101298.75
2023-03-29T07:30:32.643Z,101304.41
2023-03-29T07:33:00.602Z,101305.34
2023-03-29T07:35:28.371Z,101308.78
2023-03-29T07:37:55.957Z,101314.88
2023-03-29T07:40:24.215Z,101312.09
2023-03-29T07:42:54.421Z,101316.84
2023-03-29T07:45:26.812Z,101324.91
2023-03-29T07:47:59.514Z,101318.38
2023-03-29T07:50:26.880Z,101321.34
2023-03-29T07:52:53.968Z,101328.91
2023-03-29T07:55:22.179Z,101327.06
2023-03-29T07:57:49.581Z,101328.84
2023-03-29T08:00:17.496Z,101325.06
2023-03-29T08:02:45.975Z,101325.81
2023-03-29T08:05:16.323Z,101322.94
2023-03-29T08:07:47.139Z,101323.22
2023-03-29T08:10:20.299Z,101327.91
2023-03-29T08:12:48.978Z,101327.44
2023-03-29T08:15:16.590Z,101331.91
2023-03-29T08:17:43.541Z,101328.56
2023-03-29T08:20:13.103Z,101328.13
2023-03-29T08:22:40.624Z,101340.34
2023-03-29T08:25:08.133Z,101343.00
2023-03-29T08:27:35.402Z,101342.41
2023-03-29T08:30:02.154Z,101340.88
2023-03-29T08:32:28.895Z,101343.50
2023-03-29T08:34:55.660Z,101343.72
2023-03-29T08:37:24.558Z,101355.25
2023-03-29T08:39:51.598Z,101348.91
2023-03-29T08:42:50.536Z,101353.22
2023-03-29T08:45:35.431Z,101344.59
2023-03-29T08:48:20.831Z,101346.13
2023-03-29T08:50:52.851Z,101336.94
2023-03-29T08:53:27.734Z,101330.69
2023-03-29T08:55:57.396Z,101330.47
2023-03-29T08:58:29.097Z,101323.75
2023-03-29T09:00:58.617Z,101314.88
2023-03-29T09:03:34.359Z,101327.75
2023-03-29T09:06:08.131Z,101322.81
2023-03-29T09:08:39.670Z,101326.38
2023-03-29T09:11:15.377Z,101329.00
2023-03-29T09:13:51.111Z,101326.66
2023-03-29T09:16:50.123Z,101329.94
2023-03-29T09:19:23.735Z,101325.84
2023-03-29T09:22:09.465Z,101323.97
2023-03-29T09:25:16.057Z,101327.69
2023-03-29T09:27:57.396Z,101330.47
2023-03-29T09:30:29.734Z,101327.16
2023-03-29T09:33:08.354Z,101324.88
2023-03-29T09:35:40.577Z,101311.63
2023-03-29T09:38:12.422Z,101306.09
2023-03-29T09:40:50.267Z,101293.72
2023-03-29T09:43:27.056Z,101290.28
2023-03-29T09:45:57.288Z,101292.97
2023-03-29T09:48:27.094Z,101294.09
2023-03-29T09:50:54.195Z,101296.03
2023-03-29T09:53:21.779Z,101294.59
2023-03-29T09:55:50.515Z,101284.78
2023-03-29T09:58:20.590Z,101279.19
2023-03-29T10:00:48.672Z,101284.16
2023-03-29T10:03:24.320Z,101277.13
2023-03-29T10:05:54.511Z,101282.47
2023-03-29T10:08:59.080Z,101283.78
2023-03-29T10:11:34.700Z,101267.88
2023-03-29T10:14:05.199Z,101254.13
2023-03-29T10:16:39.043Z,101265.59
2023-03-29T10:19:21.230Z,101261.09
2023-03-29T10:21:50.007Z,101263.84
2023-03-29T10:24:22.152Z,101261.88
2023-03-29T10:26:55.553Z,101256.97
2023-03-29T10:29:24.723Z,101251.25
2023-03-29T10:31:52.907Z,101254.56
2023-03-29T10:34:25.244Z,101250.28
2023-03-29T10:37:01.146Z,101249.81
2023-03-29T10:39:32.908Z,101248.59
2023-03-29T10:42:01.358Z,101255.34
2023-03-29T10:44:33.106Z,101258.22
2023-03-29T10:47:20.236Z,101256.19
2023-03-29T10:49:56.939Z,101254.44
2023-03-29T10:52:24.575Z,101264.78
2023-03-29T10:54:54.871Z,101252.03
2023-03-29T10:57:42.443Z,101255.19
2023-03-29T11:00:34.298Z,101261.38
2023-03-29T11:03:31.316Z,101264.56
2023-03-29T11:06:33.523Z,101262.09
2023-03-29T11:09:05.521Z,101255.69
2023-03-29T11:12:04.428Z,101266.50
2023-03-29T11:14:48.484Z,101256.75
2023-03-29T11:17:37.427Z,101253.63
2023-03-29T11:20:19.595Z,101242.59
2023-03-29T11:23:18.127Z,101232.50
2023-03-29T11:26:04.425Z,101227.25
2023-03-29T11:28:49.120Z,101214.59
2023-03-29T11:31:32.687Z,101225.88
2023-03-29T11:34:28.134Z,101218.50
2023-03-29T11:37:10.780Z,101216.88
2023-03-29T11:40:00.417Z,101221.34
2023-03-29T11:42:32.221Z,101226.06
2023-03-29T11:45:02.252Z,101231.97
2023-03-29T11:47:35.110Z,101232.47
2023-03-29T11:50:19.630Z,101237.56
2023-03-29T11:52:55.553Z,101241.78
2023-03-29T11:55:26.538Z,101238.25
2023-03-29T11:58:01.348Z,101242.66
2023-03-29T12:00:36.595Z,101238.13
2023-03-29T12:03:43.636Z,101248.53
2023-03-29T12:06:39.303Z,101255.03
2023-03-29T12:09:29.024Z,101249.94
2023-03-29T12:12:17.775Z,101241.50
2023-03-29T12:15:10.922Z,101244.38
2023-03-29T12:17:43.806Z,101227.00
2023-03-29T12:20:23.341Z,101222.66
2023-03-29T12:22:50.948Z,101226.44
2023-03-29T12:25:23.846Z,101226.28
2023-03-29T12:28:07.673Z,101233.88
2023-03-29T12:30:55.534Z,101225.31
2023-03-29T12:33:39.017Z,101220.84
2023-03-29T12:36:11.615Z,101225.84
2023-03-29T12:38:38.607Z,101227.06
2023-03-29T12:41:16.585Z,101224.69
2023-03-29T12:43:43.648Z,101231.56
2023-03-29T12:46:18.301Z,101242.09
2023-03-29T12:48:49.137Z,101242.22
2023-03-29T12:51:23.481Z,101246.31
2023-03-29T12:53:53.760Z,101246.09
2023-03-29T12:56:23.815Z,101240.91
2023-03-29T12:58:59.781Z,101244.47
2023-03-29T13:01:35.245Z,101244.31
2023-03-29T13:04:01.830Z,101244.75
2023-03-29T13:06:33.746Z,101244.72
2023-03-29T13:09:20.950Z,101236.97
2023-03-29T13:12:10.701Z,101236.34
2023-03-29T13:14:42.832Z,101246.59
2023-03-29T13:17:21.851Z,101246.66
2023-03-29T13:20:21.034Z,101244.91
2023-03-29T13:23:06.017Z,101245.72
2023-03-29T13:26:11.444Z,101236.97
2023-03-29T13:29:14.718Z,101235.56
2023-03-29T13:32:16.807Z,101226.06
2023-03-29T13:35:10.424Z,101227.94
2023-03-29T13:37:55.317Z,101217.50
2023-03-29T13:40:28.375Z,101218.50
2023-03-29T13:43:10.294Z,101222.50
2023-03-29T13:45:37.774Z,101225.38
2023-03-29T13:48:33.641Z,101225.50
2023-03-29T13:51:13.956Z,101223.22
2023-03-29T13:53:49.532Z,101216.06
2023-03-29T13:56:20.085Z,101209.78
2023-03-29T13:58:53.880Z,101222.19
2023-03-29T14:01:42.585Z,101214.31
2023-03-29T14:04:15.970Z,101205.28
2023-03-29T14:06:49.009Z,101211.59
2023-03-29T14:09:18.439Z,101201.34
2023-03-29T14:11:47.498Z,101199.31
2023-03-29T14:14:14.815Z,101198.91
2023-03-29T14:16:42.253Z,101192.53
2023-03-29T14:19:16.697Z,101178.38
2023-03-29T14:21:44.888Z,101175.41
2023-03-29T14:24:17.701Z,101166.63
2023-03-29T14:26:46.909Z,101163.84
2023-03-29T14:29:13.741Z,101163.16
2023-03-29T14:31:42.398Z,101161.16
2023-03-29T14:34:15.245Z,101157.91
2023-03-29T14:36:45.019Z,101156.41
2023-03-29T14:39:20.951Z,101152.69
2023-03-29T14:41:56.917Z,101143.97
2023-03-29T14:44:27.408Z,101138.75
2023-03-29T14:46:54.996Z,101136.41
2023-03-29T14:49:23.136Z,101144.28
2023-03-29T14:51:50.990Z,101125.28
2023-03-29T14:54:36.774Z,101101.25
2023-03-29T14:57:08.269Z,101109.47
2023-03-29T14:59:34.907Z,101103.09
2023-03-29T15:02:01.629Z,101095.41
2023-03-29T15:04:35.615Z,101096.72
2023-03-29T15:07:04.991Z,101093.13
2023-03-29T15:09:34.686Z,101077.47
2023-03-29T15:12:03.433Z,101084.25
2023-03-29T15:14:33.996Z,101091.22
2023-03-29T15:17:04.667Z,101092.13
2023-03-29T15:19:32.239Z,101078.78
2023-03-29T15:22:10.089Z,101072.78
2023-03-29T15:24:43.161Z,101070.31
2023-03-29T15:27:19.677Z,101063.16
2023-03-29T15:29:47.380Z,101065.00
2023-03-29T15:32:25.034Z,101054.81
2023-03-29T15:35:02.890Z,101048.41
2023-03-29T15:37:29.604Z,101029.47
2023-03-29T15:39:57.800Z,101032.19
2023-03-29T15:42:25.695Z,101025.34
2023-03-29T15:44:56.473Z,101020.78
2023-03-29T15:47:24.163Z,101019.56
2023-03-29T15:49:51.128Z,101009.28
2023-03-29T15:52:17.857Z,101011.63
2023-03-29T15:54:44.709Z,101007.34
2023-03-29T15:57:14.677Z,101008.72
2023-03-29T15:59:42.679Z,101007.44
2023-03-29T16:02:14.073Z,100997.56
2023-03-29T16:04:40.782Z,100991.19
2023-03-29T16:07:13.812Z,100996.22
2023-03-29T16:09:40.816Z,100994.78
2023-03-29T16:12:07.613Z,100995.22
2023-03-29T16:14:34.312Z,100980.13
2023-03-29T16:17:02.997Z,100966.88
2023-03-29T16:19:31.218Z,100965.25
2023-03-29T16:21:58.981Z,100949.59
2023-03-29T16:24:31.745Z,100947.84
2023-03-29T16:26:59.796Z,100933.56
2023-03-29T16:29:26.531Z,100917.69
2023-03-29T16:31:53.784Z,100922.13
2023-03-29T16:34:22.745Z,100913.31
2023-03-29T16:36:50.132Z,100906.09
2023-03-29T16:39:18.280Z,100895.94
2023-03-29T16:41:48.364Z,100896.88
2023-03-29T16:44:23.975Z,100870.53
2023-03-29T16:46:53.944Z,100871.19
2023-03-29T16:49:21.586Z,100862.09
2023-03-29T16:51:48.585Z,100846.63
2023-03-29T16:54:17.220Z,100841.78
2023-03-29T16:56:43.973Z,100840.84
2023-03-29T16:59:12.019Z,100833.78
2023-03-29T17:01:40.726Z,100827.50
2023-03-29T17:04:07.852Z,100823.25
2023-03-29T17:06:34.666Z,100814.34
2023-03-29T17:09:01.361Z,100802.88
2023-03-29T17:11:29.046Z,100802.88
2023-03-29T17:13:56.175Z,100797.16
2023-03-29T17:16:23.342Z,100778.03
2023-03-29T17:18:50.171Z,100781.50
2023-03-29T17:21:17.205Z,100773.47
2023-03-29T17:23:43.952Z,100764.13
2023-03-29T17:26:11.912Z,100757.47
2023-03-29T17:28:39.038Z,100754.53
2023-03-29T17:31:07.837Z,100754.47
2023-03-29T17:33:36.094Z,100756.97
2023-03-29T17:36:05.072Z,100757.94
2023-03-29T17:38:33.914Z,100735.03
2023-03-29T17:41:01.350Z,100724.09
2023-03-29T17:43:28.244Z,100724.41
2023-03-29T17:45:55.630Z,100712.22
2023-03-29T17:48:24.101Z,100705.69
2023-03-29T17:50:51.039Z,100697.44
2023-03-29T17:53:17.747Z,100699.88
2023-03-29T17:55:44.699Z,100696.00
2023-03-29T17:58:11.775Z,100683.84
2023-03-29T18:00:38.718Z,100675.31
2023-03-29T18:03:05.852Z,100665.59
2023-03-29T18:05:33.663Z,100652.34
2023-03-29T18:08:00.344Z,100649.44
2023-03-29T18:10:27.087Z,100640.53
2023-03-29T18:12:54.712Z,100623.38
2023-03-29T18:15:21.390Z,100625.78
2023-03-29T18:17:48.023Z,100624.88
2023-03-29T18:20:14.827Z,100611.84
2023-03-29T18:22:42.206Z,100607.31
2023-03-29T18:25:09.759Z,100616.00
2023-03-29T18:27:37.783Z,100593.88
2023-03-29T18:30:06.500Z,100594.63
2023-03-29T18:32:33.589Z,100599.97
2023-03-29T18:35:02.355Z,100584.78
2023-03-29T18:37:29.158Z,100577.28
2023-03-29T18:39:55.997Z,100491.38
2023-03-29T18:42:22.868Z,100483.97
2023-03-29T18:44:49.672Z,100489.84
2023-03-29T18:47:18.214Z,100471.41
2023-03-29T18:49:44.911Z,100473.03
2023-03-29T18:52:11.626Z,100471.03
2023-03-29T18:54:38.661Z,100469.53
2023-03-29T18:57:05.677Z,100469.66
2023-03-29T18:59:32.343Z,100461.41
2023-03-29T19:01:59.053Z,100446.84
2023-03-29T19:04:27.176Z,100449.75
2023-03-29T19:06:55.585Z,100437.41
2023-03-29T19:09:22.914Z,100438.78
2023-03-29T19:11:49.599Z,100433.50
2023-03-29T19:14:17.424Z,100420.66
2023-03-29T19:16:44.163Z,100413.81
2023-03-29T19:19:11.053Z,100401.59
2023-03-29T19:21:38.596Z,100396.50
2023-03-29T19:24:07.666Z,100393.78
2023-03-29T19:26:34.744Z,100385.59
2023-03-29T19:29:01.509Z,100378.34
2023-03-29T19:31:28.378Z,100376.41
2023-03-29T19:33:55.331Z,100368.69
2023-03-29T19:36:22.272Z,100365.97
2023-03-29T19:38:49.001Z,100374.09
2023-03-29T19:41:15.935Z,100373.25
2023-03-29T19:43:42.693Z,100376.25
2023-03-29T19:46:12.062Z,100367.81
2023-03-29T19:48:39.660Z,100351.38
2023-03-29T19:51:06.898Z,100344.13
2023-03-29T19:53:38.158Z,100342.81
2023-03-29T19:56:07.516Z,100337.84
2023-03-29T19:58:34.388Z,100327.88
2023-03-29T20:01:01.269Z,100315.03
2023-03-29T20:03:28.521Z,100313.81
2023-03-29T20:05:57.148Z,100308.00
2023-03-29T20:08:24.867Z,100302.91
2023-03-29T20:10:59.551Z,100299.91
2023-03-29T20:13:37.491Z,100294.13
2023-03-29T20:16:11.889Z,100288.63
2023-03-29T20:18:39.321Z,100282.25
2023-03-29T20:21:07.545Z,100278.78
2023-03-29T20:23:34.981Z,100260.91
2023-03-29T20:26:01.761Z,100251.97
2023-03-29T20:28:28.580Z,100250.09
2023-03-29T20:30:55.376Z,100242.00
2023-03-29T20:33:22.288Z,100239.50
2023-03-29T20:35:49.372Z,100224.34
2023-03-29T20:38:16.201Z,100227.41
2023-03-29T20:40:42.832Z,100223.81
2023-03-29T20:43:18.810Z,100226.22
2023-03-29T20:45:53.531Z,100214.09
2023-03-29T20:48:23.452Z,100209.44
2023-03-29T20:50:51.043Z,100203.94
2023-03-29T20:53:18.343Z,100210.88
2023-03-29T20:55:45.340Z,100070.34
2023-03-29T20:58:12.196Z,100066.09
2023-03-29T21:00:40.375Z,100067.63
2023-03-29T21:03:08.431Z,100056.06
2023-03-29T21:05:35.938Z,100046.50
2023-03-29T21:08:04.483Z,100057.97
2023-03-29T21:10:31.448Z,100059.72
2023-03-29T21:13:02.571Z,100057.75
2023-03-29T21:15:31.093Z,100054.06
2023-03-29T21:17:58.323Z,100044.84
2023-03-29T21:20:25.621Z,100045.97
2023-03-29T21:22:52.269Z,100041.72
2023-03-29T21:25:19.460Z,100043.75
2023-03-29T21:27:46.341Z,100043.06
2023-03-29T21:30:13.654Z,100033.28
2023-03-29T21:32:40.504Z,99926.75
2023-03-29T21:35:07.883Z,99922.31
2023-03-29T21:37:34.902Z,99924.00
2023-03-29T21:40:05.611Z,99916.94
2023-03-29T21:42:33.650Z,99918.06
2023-03-29T21:45:00.854Z,99902.66
2023-03-29T21:47:27.634Z,99897.50
2023-03-29T21:49:54.428Z,99892.59
2023-03-29T21:52:21.611Z,99893.47
2023-03-29T21:54:48.315Z,99884.34
2023-03-29T21:57:15.134Z,99882.66
2023-03-29T21:59:41.800Z,99886.66
2023-03-29T22:02:08.546Z,99886.31
2023-03-29T22:04:37.444Z,99868.00
2023-03-29T22:07:05.664Z,99873.78
2023-03-29T22:09:34.993Z,99863.94
2023-03-29T22:12:04.755Z,99863.69
2023-03-29T22:14:35.220Z,99862.56
2023-03-29T22:17:05.954Z,99860.34
2023-03-29T22:19:34.235Z,99853.47
2023-03-29T22:22:01.669Z,99865.16
2023-03-29T22:24:29.101Z,99853.22
2023-03-29T22:26:56.117Z,99848.22
2023-03-29T22:29:23.091Z,99843.88
2023-03-29T22:31:50.147Z,99844.50
2023-03-29T22:34:16.884Z,99835.16
2023-03-29T22:36:43.555Z,99835.28
2023-03-29T22:39:11.265Z,99843.88
2023-03-29T22:41:38.043Z,99833.06
2023-03-29T22:44:04.928Z,99835.66
2023-03-29T22:46:31.891Z,99834.19
2023-03-29T22:48:58.785Z,99820.16
2023-03-29T22:51:25.643Z,99829.38
2023-03-29T22:53:52.309Z,99818.69
2023-03-29T22:56:19.255Z,99816.22
2023-03-29T22:58:46.130Z,99814.00
2023-03-29T23:01:14.694Z,99804.91
2023-03-29T23:03:41.728Z,99799.72
2023-03-29T23:06:08.433Z,99806.25
2023-03-29T23:08:35.373Z,99807.97
2023-03-29T23:11:02.808Z,99807.38
2023-03-29T23:13:30.035Z,99797.53
2023-03-29T23:15:59.266Z,99796.91
2023-03-29T23:18:28.374Z,99783.59
2023-03-29T23:20:56.731Z,99779.19
2023-03-29T23:23:25.274Z,99783.75
2023-03-29T23:25:53.363Z,99775.00
2023-03-29T23:28:24.495Z,99777.09
2023-03-29T23:31:03.285Z,99758.16
2023-03-29T23:33:35.759Z,99749.66
2023-03-29T23:36:05.497Z,99742.41
2023-03-29T23:38:34.295Z,99706.72
2023-03-29T23:41:03.311Z,99705.13
2023-03-29T23:43:37.156Z,99706.34
2023-03-29T23:46:06.948Z,99697.16
2023-03-29T23:48:34.367Z,99650.19
2023-03-29T23:51:02.533Z,99649.31
2023-03-29T23:53:30.475Z,99634.28
2023-03-29T23:56:02.168Z,99631.97
2023-03-29T23:58:31.723Z,99629.13
